createdAt,value
2016-11-03T00:00:07.939Z,0
2016-11-03T00:01:21.426Z,0
2016-11-03T00:02:34.963Z,0
2016-11-03T00:03:47.987Z,0
2016-11-03T00:05:01.735Z,0
2016-11-03T00:06:15.513Z,0
2016-11-03T00:07:29.135Z,0
2016-11-03T00:08:42.781Z,0
2016-11-03T00:09:56.312Z,0
2016-11-03T00:11:09.359Z,0
2016-11-03T00:12:22.462Z,0
2016-11-03T00:13:35.500Z,0
2016-11-03T00:14:48.307Z,0
2016-11-03T00:16:01.879Z,0
2016-11-03T00:17:15.468Z,0
2016-11-03T00:18:28.734Z,0
2016-11-03T00:19:42.409Z,0
2016-11-03T00:20:56.068Z,0
2016-11-03T00:22:09.046Z,0
2016-11-03T00:23:22.357Z,0
2016-11-03T00:24:35.391Z,0
2016-11-03T00:25:48.915Z,0
2016-11-03T00:27:02.558Z,0
2016-11-03T00:28:16.132Z,0
2016-11-03T00:29:29.214Z,0
2016-11-03T00:30:42.795Z,0
2016-11-03T00:31:56.334Z,0
2016-11-03T00:33:09.882Z,0
2016-11-03T00:34:23.460Z,0
2016-11-03T00:35:37.013Z,0
2016-11-03T00:36:50.010Z,0
2016-11-03T00:38:03.072Z,0
2016-11-03T00:39:15.582Z,0
2016-11-03T00:40:28.074Z,0
2016-11-03T00:41:41.128Z,0
2016-11-03T00:42:54.160Z,0
2016-11-03T00:44:07.789Z,0
2016-11-03T00:45:21.611Z,0
2016-11-03T00:46:35.178Z,0
2016-11-03T00:47:48.817Z,0
2016-11-03T00:49:01.902Z,0
2016-11-03T00:50:15.373Z,0
2016-11-03T00:51:28.403Z,0
2016-11-03T00:52:42.240Z,0
2016-11-03T00:53:55.957Z,0
2016-11-03T00:55:08.475Z,0
2016-11-03T00:56:21.219Z,0
2016-11-03T00:57:34.808Z,0
2016-11-03T00:58:47.834Z,0
2016-11-03T01:00:01.369Z,0
2016-11-03T01:01:15.260Z,0
2016-11-03T01:02:28.303Z,0
2016-11-03T01:03:41.895Z,0
2016-11-03T01:04:55.923Z,0
2016-11-03T01:06:09.495Z,0
2016-11-03T01:07:23.076Z,0
2016-11-03T01:08:36.690Z,0
2016-11-03T01:09:50.321Z,0
2016-11-03T01:11:03.407Z,0
2016-11-03T01:12:16.540Z,0
2016-11-03T01:13:30.197Z,0
2016-11-03T01:14:43.759Z,0
2016-11-03T01:15:57.504Z,0
2016-11-03T01:17:10.625Z,0
2016-11-03T01:18:23.154Z,0
2016-11-03T01:19:36.799Z,0
2016-11-03T01:20:49.322Z,0
2016-11-03T01:22:03.163Z,0
2016-11-03T01:23:16.806Z,0
2016-11-03T01:24:29.346Z,0
2016-11-03T01:25:42.413Z,0
2016-11-03T01:26:55.923Z,0
2016-11-03T01:28:09.476Z,0
2016-11-03T01:29:23.108Z,0
2016-11-03T01:30:36.203Z,0
2016-11-03T01:31:49.693Z,0
2016-11-03T01:33:02.718Z,0
2016-11-03T01:34:15.910Z,0
2016-11-03T01:35:29.619Z,0
2016-11-03T01:36:42.254Z,0
2016-11-03T01:37:55.343Z,0
2016-11-03T01:39:09.006Z,0
2016-11-03T01:40:22.809Z,0
2016-11-03T01:41:36.358Z,0
2016-11-03T01:42:49.461Z,0
2016-11-03T01:44:03.048Z,0
2016-11-03T01:45:16.646Z,0
2016-11-03T01:46:30.246Z,0
2016-11-03T01:47:43.848Z,0
2016-11-03T01:48:56.913Z,0
2016-11-03T01:50:09.942Z,0
2016-11-03T01:51:22.949Z,0
2016-11-03T01:52:36.005Z,0
2016-11-03T01:53:49.604Z,0
2016-11-03T01:55:03.207Z,0
2016-11-03T01:56:16.723Z,0
2016-11-03T01:57:30.137Z,0
2016-11-03T01:58:43.773Z,0
2016-11-03T01:59:56.552Z,0
2016-11-03T02:01:09.817Z,0
2016-11-03T02:02:23.316Z,0
2016-11-03T02:03:37.015Z,0
2016-11-03T02:04:50.585Z,0
2016-11-03T02:06:04.193Z,0
2016-11-03T02:07:17.743Z,0
2016-11-03T02:08:30.519Z,0
2016-11-03T02:09:43.253Z,0
2016-11-03T02:10:56.881Z,0
2016-11-03T02:12:09.942Z,0
2016-11-03T02:13:23.531Z,0
2016-11-03T02:14:37.092Z,0
2016-11-03T02:15:50.623Z,0
2016-11-03T02:17:04.284Z,0
2016-11-03T02:18:17.357Z,0
2016-11-03T02:19:31.029Z,0
2016-11-03T02:20:44.660Z,0
2016-11-03T02:21:58.150Z,0
2016-11-03T02:23:11.186Z,0
2016-11-03T02:24:24.758Z,0
2016-11-03T02:25:38.380Z,0
2016-11-03T02:26:51.149Z,0
2016-11-03T02:28:04.227Z,0
2016-11-03T02:29:17.782Z,0
2016-11-03T02:30:30.896Z,0
2016-11-03T02:31:44.509Z,0
2016-11-03T02:32:57.607Z,0
2016-11-03T02:34:10.670Z,0
2016-11-03T02:35:24.267Z,0
2016-11-03T02:36:37.899Z,0
2016-11-03T02:37:51.702Z,0
2016-11-03T02:39:05.352Z,0
2016-11-03T02:40:18.468Z,0
2016-11-03T02:41:32.130Z,0
2016-11-03T02:42:45.703Z,0
2016-11-03T02:43:59.280Z,0
2016-11-03T02:45:12.317Z,0
2016-11-03T02:46:25.348Z,0
2016-11-03T02:47:38.926Z,0
2016-11-03T02:48:52.832Z,0
2016-11-03T02:50:05.887Z,0
2016-11-03T02:51:19.404Z,0
2016-11-03T02:52:32.413Z,0
2016-11-03T02:53:45.913Z,0
2016-11-03T02:54:59.568Z,0
2016-11-03T02:56:12.637Z,0
2016-11-03T02:57:25.145Z,0
2016-11-03T02:58:38.203Z,0
2016-11-03T02:59:51.658Z,0
2016-11-03T03:01:05.211Z,0
2016-11-03T03:02:18.825Z,0
2016-11-03T03:03:32.439Z,0
2016-11-03T03:04:45.504Z,0
2016-11-03T03:05:58.483Z,0
2016-11-03T03:07:11.504Z,0
2016-11-03T03:08:24.594Z,0
2016-11-03T03:09:38.153Z,0
2016-11-03T03:10:51.732Z,0
2016-11-03T03:12:05.315Z,0
2016-11-03T03:13:18.884Z,0
2016-11-03T03:14:32.454Z,0
2016-11-03T03:15:46.004Z,0
2016-11-03T03:16:59.587Z,0
2016-11-03T03:18:13.253Z,0
2016-11-03T03:19:26.816Z,0
2016-11-03T03:20:40.497Z,0
2016-11-03T03:21:53.568Z,0
2016-11-03T03:23:06.602Z,0
2016-11-03T03:24:19.904Z,0
2016-11-03T03:25:33.646Z,0
2016-11-03T03:26:46.714Z,0
2016-11-03T03:28:00.264Z,0
2016-11-03T03:29:13.835Z,0
2016-11-03T03:30:27.448Z,0
2016-11-03T03:31:41.086Z,0
2016-11-03T03:32:54.711Z,0
2016-11-03T03:34:08.310Z,0
2016-11-03T03:35:20.807Z,0
2016-11-03T03:36:34.399Z,0
2016-11-03T03:37:47.470Z,0
2016-11-03T03:39:01.106Z,0
2016-11-03T03:40:14.638Z,0
2016-11-03T03:41:28.172Z,0
2016-11-03T03:42:40.682Z,0
2016-11-03T03:43:54.325Z,0
2016-11-03T03:45:07.969Z,0
2016-11-03T03:46:21.036Z,0
2016-11-03T03:47:34.586Z,0
2016-11-03T03:48:47.667Z,0
2016-11-03T03:50:01.294Z,0
2016-11-03T03:51:14.979Z,0
2016-11-03T03:52:28.579Z,0
2016-11-03T03:53:42.364Z,0
2016-11-03T03:54:55.809Z,0
2016-11-03T03:56:09.481Z,0
2016-11-03T03:57:22.530Z,0
2016-11-03T03:58:36.125Z,0
2016-11-03T03:59:49.740Z,0
2016-11-03T04:01:02.831Z,0
2016-11-03T04:02:15.844Z,0
2016-11-03T04:03:28.305Z,0
2016-11-03T04:04:41.358Z,0
2016-11-03T04:05:54.764Z,0
2016-11-03T04:07:07.823Z,0
2016-11-03T04:08:21.179Z,0
2016-11-03T04:09:34.751Z,0
2016-11-03T04:10:48.557Z,0
2016-11-03T04:12:02.166Z,0
2016-11-03T04:13:15.549Z,0
2016-11-03T04:14:28.843Z,0
2016-11-03T04:15:42.445Z,0
2016-11-03T04:16:56.021Z,0
2016-11-03T04:18:09.056Z,0
2016-11-03T04:19:22.378Z,0
2016-11-03T04:20:35.927Z,0
2016-11-03T04:21:49.489Z,0
2016-11-03T04:23:02.548Z,0
2016-11-03T04:24:15.598Z,0
2016-11-03T04:25:28.192Z,0
2016-11-03T04:26:41.786Z,0
2016-11-03T04:27:54.319Z,0
2016-11-03T04:29:07.866Z,0
2016-11-03T04:30:20.836Z,0
2016-11-03T04:31:33.906Z,0
2016-11-03T04:32:46.939Z,0
2016-11-03T04:34:00.543Z,0
2016-11-03T04:35:14.147Z,0
2016-11-03T04:36:27.686Z,0
2016-11-03T04:37:41.234Z,0
2016-11-03T04:38:54.226Z,0
2016-11-03T04:40:07.784Z,0
2016-11-03T04:41:20.828Z,0
2016-11-03T04:42:34.507Z,0
2016-11-03T04:43:48.164Z,0
2016-11-03T04:45:01.177Z,0
2016-11-03T04:46:14.757Z,0
2016-11-03T04:47:28.355Z,0
2016-11-03T04:48:41.883Z,0
2016-11-03T04:49:55.238Z,0
2016-11-03T04:51:08.281Z,0
2016-11-03T04:52:21.807Z,0
2016-11-03T04:53:35.396Z,0
2016-11-03T04:54:48.979Z,0
2016-11-03T04:56:02.619Z,0
2016-11-03T04:57:15.645Z,0
2016-11-03T04:58:29.288Z,0
2016-11-03T04:59:42.900Z,0
2016-11-03T05:00:56.550Z,0
2016-11-03T05:02:09.544Z,0
2016-11-03T05:03:23.107Z,0
2016-11-03T05:04:36.729Z,0
2016-11-03T05:05:50.315Z,0
2016-11-03T05:07:03.441Z,0
2016-11-03T05:08:17.044Z,0
2016-11-03T05:09:30.696Z,0
2016-11-03T05:10:44.347Z,0
2016-11-03T05:11:57.391Z,0
2016-11-03T05:13:11.039Z,0
2016-11-03T05:14:24.790Z,0
2016-11-03T05:15:38.367Z,0
2016-11-03T05:16:51.428Z,0
2016-11-03T05:18:04.988Z,0
2016-11-03T05:19:18.088Z,0
2016-11-03T05:20:31.686Z,0
2016-11-03T05:21:45.444Z,0
2016-11-03T05:22:58.984Z,0
2016-11-03T05:24:12.585Z,0
2016-11-03T05:25:26.213Z,0
2016-11-03T05:26:39.574Z,0
2016-11-03T05:27:52.068Z,0
2016-11-03T05:29:05.172Z,0
2016-11-03T05:30:18.760Z,0
2016-11-03T05:31:32.353Z,0
2016-11-03T05:32:45.519Z,0
2016-11-03T05:33:58.860Z,0
2016-11-03T05:35:12.512Z,0
2016-11-03T05:36:26.065Z,0
2016-11-03T05:37:39.676Z,0
2016-11-03T05:38:53.331Z,0
2016-11-03T05:40:06.662Z,0
2016-11-03T05:41:20.274Z,0
2016-11-03T05:42:33.338Z,0
2016-11-03T05:43:46.875Z,0
2016-11-03T05:45:00.483Z,0
2016-11-03T05:46:14.050Z,0
2016-11-03T05:47:27.709Z,0
2016-11-03T05:48:41.247Z,0
2016-11-03T05:49:54.866Z,0
2016-11-03T05:51:08.490Z,0
2016-11-03T05:52:22.018Z,0
2016-11-03T05:53:35.615Z,0
2016-11-03T05:54:48.745Z,0
2016-11-03T05:56:02.386Z,0
2016-11-03T05:57:15.932Z,0
2016-11-03T05:58:29.496Z,0
2016-11-03T05:59:43.112Z,0
2016-11-03T06:00:55.610Z,0
2016-11-03T06:02:09.147Z,0
2016-11-03T06:03:22.410Z,0
2016-11-03T06:04:36.007Z,0
2016-11-03T06:05:49.041Z,0
2016-11-03T06:07:02.720Z,0
2016-11-03T06:08:16.357Z,0
2016-11-03T06:09:29.987Z,0
2016-11-03T06:10:43.528Z,0
2016-11-03T06:11:57.096Z,0
2016-11-03T06:13:09.653Z,0
2016-11-03T06:14:22.694Z,0
2016-11-03T06:15:36.372Z,0
2016-11-03T06:16:49.756Z,0
2016-11-03T06:18:03.313Z,0
2016-11-03T06:19:16.993Z,0
2016-11-03T06:20:30.602Z,0
2016-11-03T06:21:44.280Z,0
2016-11-03T06:22:57.824Z,0
2016-11-03T06:24:11.492Z,0
2016-11-03T06:25:24.847Z,0
2016-11-03T06:26:38.408Z,0
2016-11-03T06:27:51.724Z,0
2016-11-03T06:29:04.879Z,0
2016-11-03T06:30:18.705Z,0
2016-11-03T06:31:31.991Z,0
2016-11-03T06:32:45.630Z,0
2016-11-03T06:33:59.270Z,0
2016-11-03T06:35:12.470Z,0
2016-11-03T06:36:25.575Z,0
2016-11-03T06:37:39.270Z,0
2016-11-03T06:38:52.404Z,0
2016-11-03T06:40:05.495Z,0
2016-11-03T06:41:19.090Z,0
2016-11-03T06:42:32.672Z,0
2016-11-03T06:43:46.256Z,0
2016-11-03T06:44:59.793Z,0
2016-11-03T06:46:12.778Z,0
2016-11-03T06:47:25.833Z,0
2016-11-03T06:48:39.438Z,0
2016-11-03T06:49:53.036Z,0
2016-11-03T06:51:06.680Z,0
2016-11-03T06:52:20.290Z,0
2016-11-03T06:53:33.394Z,0
2016-11-03T06:54:46.976Z,0
2016-11-03T06:56:00.592Z,0
2016-11-03T06:57:13.111Z,0
2016-11-03T06:58:26.659Z,0
2016-11-03T06:59:40.309Z,0
2016-11-03T07:00:53.864Z,0
2016-11-03T07:02:07.393Z,0
2016-11-03T07:03:20.470Z,0
2016-11-03T07:04:34.062Z,0
2016-11-03T07:05:46.598Z,0
2016-11-03T07:07:00.211Z,0
2016-11-03T07:08:13.314Z,0
2016-11-03T07:09:26.883Z,0
2016-11-03T07:10:40.541Z,0
2016-11-03T07:11:54.137Z,0
2016-11-03T07:13:07.722Z,0
2016-11-03T07:14:21.349Z,0
2016-11-03T07:15:34.929Z,0
2016-11-03T07:16:48.705Z,0
2016-11-03T07:18:02.304Z,0
2016-11-03T07:19:15.128Z,0
2016-11-03T07:20:28.738Z,0
2016-11-03T07:21:42.030Z,0
2016-11-03T07:22:55.619Z,0
2016-11-03T07:24:09.209Z,0
2016-11-03T07:25:22.983Z,0
2016-11-03T07:26:36.086Z,0
2016-11-03T07:27:49.676Z,0
2016-11-03T07:29:03.219Z,0
2016-11-03T07:30:16.762Z,0
2016-11-03T07:31:31.782Z,0
2016-11-03T07:32:45.612Z,0
2016-11-03T07:33:58.171Z,0
2016-11-03T07:35:11.800Z,0
2016-11-03T07:36:25.426Z,0
2016-11-03T07:37:39.035Z,0
2016-11-03T07:38:52.085Z,0
2016-11-03T07:40:05.143Z,0
2016-11-03T07:41:18.832Z,0
2016-11-03T07:42:31.901Z,0
2016-11-03T07:43:45.593Z,0
2016-11-03T07:44:59.198Z,0
2016-11-03T07:46:12.466Z,0
2016-11-03T07:47:25.053Z,0
2016-11-03T07:48:38.691Z,0
2016-11-03T07:49:52.319Z,0
2016-11-03T07:51:04.834Z,0
2016-11-03T07:52:17.845Z,0
2016-11-03T07:53:30.902Z,0
2016-11-03T07:54:43.700Z,0
2016-11-03T07:55:57.362Z,0
2016-11-03T07:57:10.728Z,0
2016-11-03T07:58:24.352Z,0
2016-11-03T07:59:37.708Z,0
2016-11-03T08:00:51.271Z,0
2016-11-03T08:02:04.873Z,0
2016-11-03T08:03:17.847Z,0
2016-11-03T08:04:30.940Z,0
2016-11-03T08:05:43.451Z,0
2016-11-03T08:06:55.947Z,0
2016-11-03T08:08:09.558Z,0
2016-11-03T08:09:23.113Z,0
2016-11-03T08:10:36.780Z,0
2016-11-03T08:11:50.339Z,0
2016-11-03T08:13:03.878Z,0
2016-11-03T08:14:16.436Z,4
2016-11-03T08:15:29.544Z,0
2016-11-03T08:16:43.204Z,4
2016-11-03T08:17:56.873Z,4
2016-11-03T08:19:09.915Z,4
2016-11-03T08:20:23.540Z,4
2016-11-03T08:21:36.093Z,8
2016-11-03T08:22:49.657Z,4
2016-11-03T08:24:03.261Z,4
2016-11-03T08:25:15.828Z,8
2016-11-03T08:26:29.389Z,8
2016-11-03T08:27:42.935Z,8
2016-11-03T08:28:55.965Z,8
2016-11-03T08:30:09.563Z,16
2016-11-03T08:31:23.206Z,16
2016-11-03T08:32:35.766Z,20
2016-11-03T08:33:49.347Z,24
2016-11-03T08:35:02.399Z,28
2016-11-03T08:36:15.985Z,32
2016-11-03T08:37:29.677Z,44
2016-11-03T08:38:43.274Z,52
2016-11-03T08:39:56.895Z,60
2016-11-03T08:41:10.477Z,68
2016-11-03T08:42:24.161Z,76
2016-11-03T08:43:37.768Z,72
2016-11-03T08:44:51.396Z,64
2016-11-03T08:46:04.969Z,56
2016-11-03T08:47:18.775Z,56
2016-11-03T08:48:32.374Z,52
2016-11-03T08:49:46.000Z,56
2016-11-03T08:50:59.548Z,52
2016-11-03T08:52:13.138Z,44
2016-11-03T08:53:26.717Z,48
2016-11-03T08:54:40.302Z,56
2016-11-03T08:55:53.943Z,60
2016-11-03T08:57:07.497Z,68
2016-11-03T08:58:20.532Z,88
2016-11-03T08:59:34.095Z,104
2016-11-03T09:00:47.741Z,104
2016-11-03T09:02:01.302Z,84
2016-11-03T09:03:14.864Z,64
2016-11-03T09:04:28.479Z,60
2016-11-03T09:05:42.110Z,72
2016-11-03T09:06:55.836Z,80
2016-11-03T09:08:09.440Z,72
2016-11-03T09:09:23.040Z,72
2016-11-03T09:10:36.594Z,80
2016-11-03T09:11:50.178Z,92
2016-11-03T09:13:03.760Z,100
2016-11-03T09:14:17.420Z,96
2016-11-03T09:15:31.000Z,100
2016-11-03T09:16:44.027Z,104
2016-11-03T09:17:57.639Z,120
2016-11-03T09:19:11.257Z,128
2016-11-03T09:20:25.002Z,132
2016-11-03T09:21:38.568Z,148
2016-11-03T09:22:52.156Z,176
2016-11-03T09:24:05.742Z,208
2016-11-03T09:25:19.343Z,228
2016-11-03T09:26:32.849Z,252
2016-11-03T09:27:46.401Z,272
2016-11-03T09:28:59.946Z,284
2016-11-03T09:30:13.439Z,276
2016-11-03T09:31:27.120Z,240
2016-11-03T09:32:40.761Z,228
2016-11-03T09:33:53.794Z,236
2016-11-03T09:35:07.074Z,244
2016-11-03T09:36:20.635Z,260
2016-11-03T09:37:34.233Z,276
2016-11-03T09:38:47.855Z,248
2016-11-03T09:40:01.198Z,232
2016-11-03T09:41:14.761Z,224
2016-11-03T09:42:28.376Z,220
2016-11-03T09:43:41.913Z,232
2016-11-03T09:44:55.516Z,244
2016-11-03T09:46:09.052Z,236
2016-11-03T09:47:22.688Z,228
2016-11-03T09:48:36.355Z,228
2016-11-03T09:49:49.407Z,240
2016-11-03T09:51:03.027Z,272
2016-11-03T09:52:16.745Z,324
2016-11-03T09:53:30.367Z,360
2016-11-03T09:54:43.973Z,328
2016-11-03T09:55:57.525Z,292
2016-11-03T09:57:11.101Z,264
2016-11-03T09:58:24.993Z,224
2016-11-03T09:59:38.595Z,236
2016-11-03T10:00:52.168Z,260
2016-11-03T10:02:05.744Z,280
2016-11-03T10:03:19.302Z,300
2016-11-03T10:04:32.921Z,260
2016-11-03T10:05:46.630Z,204
2016-11-03T10:07:00.223Z,172
2016-11-03T10:08:13.821Z,164
2016-11-03T10:09:27.430Z,172
2016-11-03T10:10:41.057Z,164
2016-11-03T10:11:54.416Z,176
2016-11-03T10:13:06.961Z,216
2016-11-03T10:14:20.638Z,240
2016-11-03T10:15:34.240Z,244
2016-11-03T10:16:47.366Z,232
2016-11-03T10:18:00.694Z,236
2016-11-03T10:19:14.235Z,244
2016-11-03T10:20:27.837Z,260
2016-11-03T10:21:41.561Z,284
2016-11-03T10:22:55.115Z,296
2016-11-03T10:24:08.723Z,328
2016-11-03T10:25:22.295Z,352
2016-11-03T10:26:35.895Z,360
2016-11-03T10:27:49.611Z,372
2016-11-03T10:29:03.143Z,416
2016-11-03T10:30:16.783Z,476
2016-11-03T10:31:30.331Z,540
2016-11-03T10:32:43.895Z,580
2016-11-03T10:33:57.484Z,584
2016-11-03T10:35:10.809Z,564
2016-11-03T10:36:24.130Z,524
2016-11-03T10:37:37.742Z,468
2016-11-03T10:38:51.353Z,432
2016-11-03T10:40:05.012Z,416
2016-11-03T10:41:18.806Z,404
2016-11-03T10:42:32.408Z,392
2016-11-03T10:43:45.990Z,364
2016-11-03T10:44:59.571Z,316
2016-11-03T10:46:13.237Z,280
2016-11-03T10:47:26.907Z,244
2016-11-03T10:48:40.590Z,208
2016-11-03T10:49:54.178Z,196
2016-11-03T10:51:07.737Z,216
2016-11-03T10:52:21.265Z,260
2016-11-03T10:53:34.875Z,304
2016-11-03T10:54:48.754Z,360
2016-11-03T10:56:02.285Z,404
2016-11-03T10:57:15.855Z,432
2016-11-03T10:58:29.426Z,428
2016-11-03T10:59:42.976Z,404
2016-11-03T11:00:56.520Z,400
2016-11-03T11:02:10.089Z,476
2016-11-03T11:03:23.334Z,620
2016-11-03T11:04:36.992Z,760
2016-11-03T11:05:50.582Z,784
2016-11-03T11:07:04.134Z,672
2016-11-03T11:08:17.133Z,524
2016-11-03T11:09:30.654Z,412
2016-11-03T11:10:44.205Z,328
2016-11-03T11:11:57.786Z,292
2016-11-03T11:13:11.405Z,280
2016-11-03T11:14:24.976Z,236
2016-11-03T11:15:38.574Z,196
2016-11-03T11:16:52.173Z,180
2016-11-03T11:18:05.777Z,184
2016-11-03T11:19:19.367Z,188
2016-11-03T11:20:32.047Z,204
2016-11-03T11:21:45.115Z,220
2016-11-03T11:22:58.689Z,264
2016-11-03T11:24:12.238Z,336
2016-11-03T11:25:26.241Z,396
2016-11-03T11:26:39.844Z,372
2016-11-03T11:27:53.196Z,324
2016-11-03T11:29:06.789Z,252
2016-11-03T11:30:20.387Z,172
2016-11-03T11:31:33.967Z,140
2016-11-03T11:32:47.663Z,140
2016-11-03T11:34:01.215Z,140
2016-11-03T11:35:14.883Z,128
2016-11-03T11:36:28.462Z,124
2016-11-03T11:37:41.741Z,140
2016-11-03T11:38:55.351Z,148
2016-11-03T11:40:08.960Z,148
2016-11-03T11:41:22.518Z,148
2016-11-03T11:42:36.099Z,132
2016-11-03T11:43:49.671Z,124
2016-11-03T11:45:03.201Z,124
2016-11-03T11:46:16.704Z,128
2016-11-03T11:47:30.265Z,148
2016-11-03T11:48:43.825Z,176
2016-11-03T11:49:57.425Z,200
2016-11-03T11:51:10.943Z,212
2016-11-03T11:52:24.574Z,228
2016-11-03T11:53:38.117Z,236
2016-11-03T11:54:51.931Z,252
2016-11-03T11:56:05.526Z,252
2016-11-03T11:57:19.160Z,268
2016-11-03T11:58:32.765Z,308
2016-11-03T12:01:09.672Z,352
2016-11-03T12:02:23.289Z,372
2016-11-03T12:03:36.825Z,392
2016-11-03T12:04:50.415Z,388
2016-11-03T12:06:03.977Z,384
2016-11-03T12:07:16.937Z,368
2016-11-03T12:08:44.503Z,360
2016-11-03T12:09:58.067Z,388
2016-11-03T12:11:11.675Z,432
2016-11-03T12:12:25.346Z,408
2016-11-03T12:13:38.296Z,364
2016-11-03T12:14:51.933Z,396
2016-11-03T12:16:05.503Z,436
2016-11-03T12:17:19.077Z,448
2016-11-03T12:18:32.587Z,476
2016-11-03T12:19:44.988Z,496
2016-11-03T12:20:58.064Z,436
2016-11-03T12:22:11.196Z,400
2016-11-03T12:23:23.661Z,464
2016-11-03T12:24:37.239Z,464
2016-11-03T12:25:50.864Z,396
2016-11-03T12:27:04.424Z,404
2016-11-03T12:28:18.145Z,372
2016-11-03T12:29:31.733Z,376
2016-11-03T12:30:45.715Z,360
2016-11-03T12:31:59.261Z,368
2016-11-03T12:33:12.832Z,396
2016-11-03T12:34:26.428Z,404
2016-11-03T12:35:39.034Z,384
2016-11-03T12:36:52.037Z,344
2016-11-03T12:38:05.313Z,332
2016-11-03T12:39:18.877Z,340
2016-11-03T12:40:32.477Z,328
2016-11-03T12:41:46.030Z,320
2016-11-03T12:42:59.630Z,284
2016-11-03T12:44:13.238Z,340
2016-11-03T12:45:26.805Z,344
2016-11-03T12:46:39.324Z,444
2016-11-03T12:47:52.646Z,484
2016-11-03T12:49:05.433Z,444
2016-11-03T12:50:18.974Z,480
2016-11-03T12:51:32.486Z,516
2016-11-03T12:52:46.086Z,588
2016-11-03T12:53:59.164Z,604
2016-11-03T12:55:12.696Z,676
2016-11-03T12:56:26.198Z,752
2016-11-03T12:57:39.759Z,784
2016-11-03T12:58:53.268Z,736
2016-11-03T13:00:06.792Z,680
2016-11-03T13:01:19.287Z,628
2016-11-03T13:02:32.831Z,576
2016-11-03T13:03:46.387Z,548
2016-11-03T13:04:59.945Z,540
2016-11-03T13:06:13.524Z,540
2016-11-03T13:07:26.988Z,588
2016-11-03T13:08:40.105Z,620
2016-11-03T13:09:53.694Z,652
2016-11-03T13:11:07.313Z,664
2016-11-03T13:12:20.893Z,660
2016-11-03T13:13:34.485Z,676
2016-11-03T13:14:48.007Z,736
2016-11-03T13:16:01.023Z,812
2016-11-03T13:17:14.597Z,852
2016-11-03T13:18:27.617Z,836
2016-11-03T13:19:41.122Z,800
2016-11-03T13:20:54.656Z,792
2016-11-03T13:22:08.337Z,824
2016-11-03T13:23:21.458Z,868
2016-11-03T13:24:34.509Z,868
2016-11-03T13:25:47.584Z,920
2016-11-03T13:27:00.635Z,952
2016-11-03T13:28:14.086Z,960
2016-11-03T13:29:27.654Z,996
2016-11-03T13:30:41.214Z,1092
2016-11-03T13:31:55.015Z,1204
2016-11-03T13:33:08.557Z,1272
2016-11-03T13:34:21.990Z,1252
2016-11-03T13:35:35.518Z,1184
2016-11-03T13:36:49.186Z,1116
2016-11-03T13:38:02.740Z,1088
2016-11-03T13:39:16.274Z,1112
2016-11-03T13:40:29.774Z,1120
2016-11-03T13:41:43.285Z,1100
2016-11-03T13:42:56.354Z,1060
2016-11-03T13:44:09.974Z,1028
2016-11-03T13:45:23.652Z,1032
2016-11-03T13:46:37.326Z,1112
2016-11-03T13:47:50.968Z,1268
2016-11-03T13:49:04.596Z,1368
2016-11-03T13:50:18.180Z,1484
2016-11-03T13:51:31.822Z,1672
2016-11-03T13:52:45.178Z,1812
2016-11-03T13:53:58.804Z,1888
2016-11-03T13:55:11.832Z,1976
2016-11-03T13:56:25.453Z,2060
2016-11-03T13:57:38.477Z,2236
2016-11-03T13:58:52.025Z,2292
2016-11-03T14:00:04.589Z,2100
2016-11-03T14:01:18.171Z,1872
2016-11-03T14:02:31.254Z,1668
2016-11-03T14:03:44.917Z,1708
2016-11-03T14:04:58.013Z,1920
2016-11-03T14:06:11.634Z,1868
2016-11-03T14:07:25.287Z,1700
2016-11-03T14:08:38.385Z,1648
2016-11-03T14:09:52.076Z,1660
2016-11-03T14:11:05.672Z,1824
2016-11-03T14:12:19.301Z,2036
2016-11-03T14:13:32.923Z,1752
2016-11-03T14:14:45.933Z,1944
2016-11-03T14:15:59.473Z,1688
2016-11-03T14:17:12.790Z,2240
2016-11-03T14:18:26.360Z,2460
2016-11-03T14:19:39.910Z,1980
2016-11-03T14:20:53.372Z,1380
2016-11-03T14:22:07.020Z,912
2016-11-03T14:23:20.120Z,852
2016-11-03T14:24:33.769Z,828
2016-11-03T14:25:47.398Z,1080
2016-11-03T14:27:01.029Z,1000
2016-11-03T14:28:14.609Z,892
2016-11-03T14:29:28.150Z,924
2016-11-03T14:30:41.894Z,1148
2016-11-03T14:31:54.967Z,1500
2016-11-03T14:33:08.094Z,1308
2016-11-03T14:34:21.568Z,1128
2016-11-03T14:35:35.250Z,924
2016-11-03T14:36:48.951Z,760
2016-11-03T14:38:02.771Z,992
2016-11-03T14:39:16.381Z,768
2016-11-03T14:40:29.934Z,644
2016-11-03T14:41:43.551Z,632
2016-11-03T14:42:57.122Z,680
2016-11-03T14:44:10.661Z,1004
2016-11-03T14:45:24.291Z,1196
2016-11-03T14:46:37.999Z,1432
2016-11-03T14:47:51.979Z,1460
2016-11-03T14:49:05.575Z,1348
2016-11-03T14:50:18.905Z,1272
2016-11-03T14:51:32.371Z,1312
2016-11-03T14:52:46.071Z,1476
2016-11-03T14:53:59.196Z,1240
2016-11-03T14:55:12.788Z,1048
2016-11-03T14:56:26.426Z,984
2016-11-03T14:57:40.045Z,1100
2016-11-03T14:58:53.366Z,908
2016-11-03T15:00:06.430Z,620
2016-11-03T15:01:20.103Z,484
2016-11-03T15:02:33.317Z,420
2016-11-03T15:03:47.024Z,392
2016-11-03T15:05:00.605Z,464
2016-11-03T15:06:14.221Z,444
2016-11-03T15:07:27.587Z,424
2016-11-03T15:08:41.297Z,460
2016-11-03T15:09:55.455Z,608
2016-11-03T15:11:08.530Z,704
2016-11-03T15:12:21.602Z,852
2016-11-03T15:13:35.367Z,928
2016-11-03T15:14:49.194Z,736
2016-11-03T15:16:02.276Z,792
2016-11-03T15:17:15.334Z,872
2016-11-03T15:18:29.071Z,876
2016-11-03T15:19:42.409Z,904
2016-11-03T15:20:56.351Z,820
2016-11-03T15:22:09.992Z,684
2016-11-03T15:23:22.983Z,436
2016-11-03T15:24:36.019Z,404
2016-11-03T15:25:49.728Z,368
2016-11-03T15:27:02.924Z,348
2016-11-03T15:28:16.528Z,296
2016-11-03T15:29:30.124Z,316
2016-11-03T15:30:43.099Z,376
2016-11-03T15:31:56.648Z,468
2016-11-03T15:33:10.304Z,536
2016-11-03T15:34:24.009Z,656
2016-11-03T15:35:37.533Z,968
2016-11-03T15:36:50.623Z,1344
2016-11-03T15:38:03.603Z,1936
2016-11-03T15:39:16.044Z,2432
2016-11-03T15:40:29.560Z,1796
2016-11-03T15:41:42.856Z,1612
2016-11-03T15:42:56.543Z,1364
2016-11-03T15:44:10.164Z,1096
2016-11-03T15:45:23.804Z,992
2016-11-03T15:46:37.504Z,1120
2016-11-03T15:47:51.027Z,1400
2016-11-03T15:49:04.705Z,1844
2016-11-03T15:50:18.532Z,1788
2016-11-03T15:51:31.901Z,1524
2016-11-03T15:52:44.938Z,1408
2016-11-03T15:53:58.018Z,1440
2016-11-03T15:55:11.069Z,1392
2016-11-03T15:56:24.649Z,1132
2016-11-03T15:57:38.278Z,1360
2016-11-03T15:58:50.881Z,1268
2016-11-03T16:00:04.484Z,1560
2016-11-03T16:01:18.081Z,2128
2016-11-03T16:02:31.674Z,2244
2016-11-03T16:03:45.329Z,3588
2016-11-03T16:04:58.972Z,4020
2016-11-03T16:06:12.896Z,3004
2016-11-03T16:07:26.017Z,2960
2016-11-03T16:08:39.606Z,2904
2016-11-03T16:09:52.792Z,2436
2016-11-03T16:11:06.385Z,2156
2016-11-03T16:12:19.989Z,2216
2016-11-03T16:13:33.044Z,2052
2016-11-03T16:14:46.601Z,1756
2016-11-03T16:15:59.722Z,1772
2016-11-03T16:17:12.808Z,1072
2016-11-03T16:18:26.447Z,1008
2016-11-03T16:19:40.047Z,1104
2016-11-03T16:20:53.715Z,1120
2016-11-03T16:22:06.822Z,1044
2016-11-03T16:23:20.504Z,1196
2016-11-03T16:24:32.555Z,1068
2016-11-03T16:25:45.806Z,1008
2016-11-03T16:26:59.145Z,1048
2016-11-03T16:28:12.833Z,1208
2016-11-03T16:29:25.277Z,936
2016-11-03T16:30:38.906Z,768
2016-11-03T16:31:52.590Z,664
2016-11-03T16:33:06.228Z,692
2016-11-03T16:34:19.384Z,932
2016-11-03T16:35:32.411Z,732
2016-11-03T16:36:45.944Z,804
2016-11-03T16:37:59.092Z,948
2016-11-03T16:39:12.404Z,1368
2016-11-03T16:40:25.806Z,1560
2016-11-03T16:41:39.433Z,1264
2016-11-03T16:42:52.434Z,1300
2016-11-03T16:44:05.532Z,1336
2016-11-03T16:45:18.934Z,1292
2016-11-03T16:46:32.503Z,1156
2016-11-03T16:47:46.204Z,908
2016-11-03T16:48:59.989Z,920
2016-11-03T16:50:13.600Z,1040
2016-11-03T16:51:27.203Z,996
2016-11-03T16:52:40.267Z,868
2016-11-03T16:53:53.958Z,760
2016-11-03T16:55:07.616Z,660
2016-11-03T16:56:21.370Z,576
2016-11-03T16:57:34.389Z,508
2016-11-03T16:58:47.982Z,520
2016-11-03T17:00:01.086Z,588
2016-11-03T17:01:14.134Z,508
2016-11-03T17:02:27.880Z,480
2016-11-03T17:03:41.452Z,544
2016-11-03T17:04:55.217Z,504
2016-11-03T17:06:08.236Z,588
2016-11-03T17:07:20.279Z,632
2016-11-03T17:08:33.346Z,676
2016-11-03T17:09:46.729Z,756
2016-11-03T17:11:00.664Z,820
2016-11-03T17:12:14.195Z,876
2016-11-03T17:13:27.843Z,720
2016-11-03T17:14:41.890Z,560
2016-11-03T17:15:54.616Z,420
2016-11-03T17:17:07.724Z,480
2016-11-03T17:18:20.774Z,500
2016-11-03T17:19:33.625Z,332
2016-11-03T17:20:47.236Z,256
2016-11-03T17:22:00.931Z,300
2016-11-03T17:23:14.368Z,308
2016-11-03T17:24:27.495Z,324